KHZR

False River Regional Airport

New Roads, Louisiana, USA
METAR KHZR 141315Z AUTO 00000KT 10SM CLR 26/24 A3005 RMK AO2 T02550239
Observed Flight Rules
Aug-14 @ 13:15 UTC (27 minutes ago) Visual Flight Rules
Visibility Clouds
10 miles
  • Clear skies
Temperatures Readings
Current 26°C / 79°F
Dewpoint 24°C / 75°F
Humidity 89%
Altimeter 30.05" Hg
Pressure 1018 hPa
Elevation 12
METAR KHZR 141315Z AUTO 00000KT 10SM CLR 26/24 A3005 RMK AO2 T02550239
Observed Flight Rules
Aug-14 @ 13:15 UTC
(27 minutes ago)
VFR
Clouds
  • Clear skies
Temperature Dewpoint
26°C / 79°F 24°C / 75°F
Humidity Altimeter Pressure
89% 30.05" Hg 1018 hPa